createdAt,value
2023-05-24T00:00:53.557Z,15.90
2023-05-24T00:03:35.950Z,15.70
2023-05-24T00:06:15.878Z,15.70
2023-05-24T00:08:54.944Z,15.60
2023-05-24T00:11:32.339Z,15.50
2023-05-24T00:14:12.826Z,15.50
2023-05-24T00:16:49.427Z,15.40
2023-05-24T00:19:27.727Z,15.40
2023-05-24T00:22:06.687Z,15.30
2023-05-24T00:24:51.656Z,15.30
2023-05-24T00:27:30.892Z,15.30
2023-05-24T00:30:11.477Z,15.20
2023-05-24T00:32:53.386Z,15.10
2023-05-24T00:35:30.366Z,15.10
2023-05-24T00:38:06.189Z,15.10
2023-05-24T00:40:48.355Z,15.00
2023-05-24T00:43:27.981Z,14.90
2023-05-24T00:46:39.513Z,14.90
2023-05-24T00:49:19.897Z,14.80
2023-05-24T00:52:00.350Z,14.80
2023-05-24T00:54:47.002Z,14.80
2023-05-24T00:57:19.022Z,14.70
2023-05-24T00:59:57.586Z,14.70
2023-05-24T01:02:35.168Z,14.70
2023-05-24T01:05:17.745Z,14.60
2023-05-24T01:07:59.998Z,14.40
2023-05-24T01:10:42.397Z,14.40
2023-05-24T01:13:23.211Z,14.30
2023-05-24T01:16:05.455Z,14.30
2023-05-24T01:18:47.891Z,14.20
2023-05-24T01:21:31.344Z,14.10
2023-05-24T01:24:14.075Z,14.10
2023-05-24T01:27:13.432Z,14.00
2023-05-24T01:29:53.896Z,14.00
2023-05-24T01:32:37.526Z,13.90
2023-05-24T01:35:17.376Z,13.80
2023-05-24T01:37:55.261Z,13.70
2023-05-24T01:40:31.037Z,13.70
2023-05-24T01:43:08.978Z,13.60
2023-05-24T01:45:55.595Z,13.50
2023-05-24T01:48:37.976Z,13.40
2023-05-24T01:51:15.307Z,13.40
2023-05-24T01:53:52.457Z,13.40
2023-05-24T01:56:32.513Z,13.40
2023-05-24T01:59:10.442Z,13.30
2023-05-24T02:01:50.652Z,13.20
2023-05-24T02:04:28.692Z,13.00
2023-05-24T02:07:03.906Z,12.90
2023-05-24T02:09:42.864Z,12.80
2023-05-24T02:12:20.321Z,12.70
2023-05-24T02:14:57.659Z,12.60
2023-05-24T02:17:36.215Z,12.50
2023-05-24T02:20:17.683Z,12.40
2023-05-24T02:22:54.160Z,12.30
2023-05-24T02:25:34.080Z,12.30
2023-05-24T02:28:12.630Z,12.20
2023-05-24T02:30:49.349Z,12.10
2023-05-24T02:33:34.165Z,12.10
2023-05-24T02:36:13.576Z,12.10
2023-05-24T02:38:49.514Z,11.90
2023-05-24T02:41:27.854Z,11.90
2023-05-24T02:44:04.498Z,11.90
2023-05-24T02:46:41.603Z,11.90
2023-05-24T02:49:22.508Z,11.80
2023-05-24T02:52:00.063Z,11.70
2023-05-24T02:54:37.524Z,11.70
2023-05-24T02:57:16.992Z,11.60
2023-05-24T02:59:56.663Z,11.60
2023-05-24T03:02:34.888Z,11.60
2023-05-24T03:05:20.871Z,11.50
2023-05-24T03:07:55.309Z,11.50
2023-05-24T03:10:30.599Z,11.50
2023-05-24T03:13:08.726Z,11.50
2023-05-24T03:15:49.589Z,11.40
2023-05-24T03:18:25.118Z,11.40
2023-05-24T03:21:06.346Z,11.40
2023-05-24T03:23:53.800Z,11.40
2023-05-24T03:26:28.957Z,11.30
2023-05-24T03:29:07.579Z,11.40
2023-05-24T03:31:48.494Z,11.40
2023-05-24T03:34:32.281Z,11.30
2023-05-24T03:37:11.216Z,11.40
2023-05-24T03:39:49.931Z,11.40
2023-05-24T03:42:48.730Z,11.30
2023-05-24T03:45:39.323Z,11.30
2023-05-24T03:48:17.136Z,11.30
2023-05-24T03:50:54.853Z,11.30
2023-05-24T03:53:36.598Z,11.30
2023-05-24T03:56:11.562Z,11.30
2023-05-24T03:58:47.853Z,11.30
2023-05-24T04:01:33.275Z,11.30
2023-05-24T04:04:10.984Z,11.30
2023-05-24T04:06:50.197Z,11.30
2023-05-24T04:09:33.426Z,11.30
2023-05-24T04:12:12.523Z,11.40
2023-05-24T04:14:52.301Z,11.30
2023-05-24T04:17:36.107Z,11.30
2023-05-24T04:20:15.842Z,11.30
2023-05-24T04:22:54.890Z,11.20
2023-05-24T04:25:34.240Z,11.30
2023-05-24T04:28:11.120Z,11.30
2023-05-24T04:30:47.185Z,11.30
2023-05-24T04:33:26.698Z,11.30
2023-05-24T04:36:02.315Z,11.30
2023-05-24T04:38:39.161Z,11.40
2023-05-24T04:41:19.500Z,11.40
2023-05-24T04:43:58.800Z,11.40
2023-05-24T04:46:36.478Z,11.50
2023-05-24T04:49:13.256Z,11.50
2023-05-24T04:51:50.183Z,11.50
2023-05-24T04:54:29.209Z,11.50
2023-05-24T04:57:11.723Z,11.50
2023-05-24T04:59:48.361Z,11.50
2023-05-24T05:02:26.791Z,11.50
2023-05-24T05:05:05.299Z,11.50
2023-05-24T05:07:39.612Z,11.50
2023-05-24T05:10:18.752Z,11.50
2023-05-24T05:12:57.267Z,11.50
2023-05-24T05:15:33.195Z,11.50
2023-05-24T05:18:09.092Z,11.40
2023-05-24T05:20:54.397Z,11.40
2023-05-24T05:23:28.033Z,11.40
2023-05-24T05:26:06.908Z,11.40
2023-05-24T05:28:47.885Z,11.40
2023-05-24T05:31:24.672Z,11.40
2023-05-24T05:33:59.855Z,11.40
2023-05-24T05:36:41.689Z,11.40
2023-05-24T05:39:18.251Z,11.40
2023-05-24T05:41:53.827Z,11.40
2023-05-24T05:44:35.196Z,11.50
2023-05-24T05:47:15.564Z,11.50
2023-05-24T05:49:53.062Z,11.60
2023-05-24T05:52:27.382Z,11.70
2023-05-24T05:55:04.898Z,11.70
2023-05-24T05:57:40.821Z,11.80
2023-05-24T06:00:22.990Z,11.90
2023-05-24T06:02:59.311Z,11.90
2023-05-24T06:05:40.869Z,11.90
2023-05-24T06:08:17.345Z,11.90
2023-05-24T06:10:55.652Z,11.90
2023-05-24T06:13:33.440Z,11.90
2023-05-24T06:16:16.991Z,11.90
2023-05-24T06:19:05.347Z,11.80
2023-05-24T06:21:40.048Z,11.80
2023-05-24T06:24:16.430Z,11.90
2023-05-24T06:26:54.228Z,11.90
2023-05-24T06:29:32.018Z,11.90
2023-05-24T06:32:11.668Z,11.90
2023-05-24T06:34:46.839Z,11.90
2023-05-24T06:37:27.795Z,11.90
2023-05-24T06:40:07.170Z,12.00
2023-05-24T06:42:42.685Z,12.00
2023-05-24T06:45:18.456Z,12.00
2023-05-24T06:47:50.100Z,12.00
2023-05-24T06:50:28.563Z,12.00
2023-05-24T06:53:06.369Z,12.00
2023-05-24T06:55:44.015Z,12.00
2023-05-24T06:58:19.858Z,12.10
2023-05-24T07:01:15.833Z,12.10
2023-05-24T07:03:54.982Z,12.10
2023-05-24T07:06:32.717Z,12.20
2023-05-24T07:09:28.415Z,12.30
2023-05-24T07:12:17.178Z,12.30
2023-05-24T07:15:18.356Z,12.30
2023-05-24T07:18:00.394Z,12.30
2023-05-24T07:20:45.610Z,12.40
2023-05-24T07:23:44.579Z,12.40
2023-05-24T07:26:39.160Z,12.40
2023-05-24T07:29:44.731Z,12.40
2023-05-24T07:32:31.254Z,12.40
2023-05-24T07:35:19.337Z,12.40
2023-05-24T07:37:58.635Z,12.40
2023-05-24T07:40:38.736Z,12.50
2023-05-24T07:43:19.317Z,12.50
2023-05-24T07:46:00.111Z,12.50
2023-05-24T07:48:49.625Z,12.60
2023-05-24T07:51:55.901Z,12.60
2023-05-24T07:54:30.442Z,12.70
2023-05-24T07:57:09.446Z,12.70
2023-05-24T07:59:52.311Z,12.80
2023-05-24T08:02:32.113Z,12.90
2023-05-24T08:05:10.608Z,12.90
2023-05-24T08:07:49.395Z,12.90
2023-05-24T08:10:28.416Z,13.00
2023-05-24T08:13:08.721Z,13.10
2023-05-24T08:15:50.205Z,13.10
2023-05-24T08:18:30.676Z,13.20
2023-05-24T08:21:08.377Z,13.30
2023-05-24T08:23:46.925Z,13.30
2023-05-24T08:26:29.044Z,13.50
2023-05-24T08:29:08.065Z,13.60
2023-05-24T08:31:54.727Z,13.70
2023-05-24T08:34:32.728Z,13.80
2023-05-24T08:37:17.120Z,13.90
2023-05-24T08:39:53.619Z,14.10
2023-05-24T08:42:29.417Z,14.30
2023-05-24T08:45:11.426Z,14.40
2023-05-24T08:47:52.352Z,14.60
2023-05-24T08:50:29.347Z,14.80
2023-05-24T08:53:05.132Z,14.80
2023-05-24T08:55:53.750Z,14.80
2023-05-24T08:58:31.983Z,14.80
2023-05-24T09:01:08.505Z,14.90
2023-05-24T09:03:51.048Z,15.00
2023-05-24T09:06:29.248Z,15.10
2023-05-24T09:09:05.068Z,15.20
2023-05-24T09:11:41.313Z,15.30
2023-05-24T09:14:17.350Z,15.50
2023-05-24T09:16:55.086Z,15.50
2023-05-24T09:19:43.332Z,15.60
2023-05-24T09:22:20.732Z,15.90
2023-05-24T09:24:59.033Z,16.10
2023-05-24T09:27:38.018Z,16.20
2023-05-24T09:30:16.689Z,16.20
2023-05-24T09:33:04.574Z,16.20
2023-05-24T09:35:41.365Z,16.20
2023-05-24T09:38:26.286Z,16.20
2023-05-24T09:41:06.129Z,16.20
2023-05-24T09:43:52.557Z,16.30
2023-05-24T09:46:30.484Z,16.30
2023-05-24T09:49:08.689Z,16.30
2023-05-24T09:51:45.278Z,16.60
2023-05-24T09:54:29.646Z,16.90
2023-05-24T09:57:14.831Z,17.00
2023-05-24T09:59:52.797Z,17.00
2023-05-24T10:02:35.585Z,16.90
2023-05-24T10:05:19.461Z,16.80
2023-05-24T10:07:53.536Z,16.80
2023-05-24T10:10:37.900Z,16.60
2023-05-24T10:13:16.496Z,16.60
2023-05-24T10:15:56.327Z,16.70
2023-05-24T10:18:35.420Z,16.80
2023-05-24T10:21:13.299Z,16.80
2023-05-24T10:23:53.949Z,16.70
2023-05-24T10:26:34.165Z,16.60
2023-05-24T10:29:12.761Z,16.50
2023-05-24T10:31:51.841Z,16.50
2023-05-24T10:34:27.886Z,16.70
2023-05-24T10:37:04.866Z,16.70
2023-05-24T10:39:43.448Z,16.70
2023-05-24T10:42:25.296Z,16.80
2023-05-24T10:45:23.218Z,16.60
2023-05-24T10:48:23.725Z,16.50
2023-05-24T10:51:05.000Z,16.30
2023-05-24T10:53:39.770Z,16.20
2023-05-24T10:56:17.665Z,16.20
2023-05-24T10:58:55.362Z,16.30
2023-05-24T11:01:34.568Z,16.30
2023-05-24T11:04:13.076Z,16.30
2023-05-24T11:06:56.569Z,16.40
2023-05-24T11:09:33.870Z,16.40
2023-05-24T11:12:12.388Z,16.50
2023-05-24T11:14:51.729Z,16.50
2023-05-24T11:17:26.490Z,16.60
2023-05-24T11:20:09.730Z,16.70
2023-05-24T11:22:46.387Z,16.80
2023-05-24T11:25:22.718Z,16.90
2023-05-24T11:28:01.885Z,16.90
2023-05-24T11:30:43.436Z,16.90
2023-05-24T11:33:23.331Z,16.90
2023-05-24T11:36:11.628Z,17.00
2023-05-24T11:38:47.599Z,17.00
2023-05-24T11:41:23.053Z,17.10
2023-05-24T11:43:58.931Z,17.10
2023-05-24T11:46:36.288Z,17.10
2023-05-24T11:49:16.542Z,17.10
2023-05-24T11:51:56.990Z,17.10
2023-05-24T11:54:33.973Z,17.10
2023-05-24T11:57:15.536Z,17.10
2023-05-24T11:59:51.427Z,17.10
2023-05-24T12:02:29.006Z,17.10
2023-05-24T12:05:14.448Z,17.10
2023-05-24T12:08:05.756Z,17.10
2023-05-24T12:10:41.983Z,17.00
2023-05-24T12:13:28.097Z,17.00
2023-05-24T12:16:08.295Z,17.00
2023-05-24T12:18:55.222Z,17.10
2023-05-24T12:21:44.255Z,17.10
2023-05-24T12:24:25.421Z,17.10
2023-05-24T12:27:03.687Z,17.20
2023-05-24T12:29:42.147Z,17.30
2023-05-24T12:32:19.422Z,17.20
2023-05-24T12:34:58.904Z,17.20
2023-05-24T12:37:38.559Z,17.20
2023-05-24T12:40:24.121Z,17.30
2023-05-24T12:43:01.427Z,17.10
2023-05-24T12:45:40.862Z,17.10
2023-05-24T12:48:16.543Z,17.10
2023-05-24T12:50:57.555Z,17.10
2023-05-24T12:53:35.133Z,17.10
2023-05-24T12:56:16.547Z,17.10
2023-05-24T12:58:53.695Z,17.10
2023-05-24T13:01:30.716Z,17.10
2023-05-24T13:04:11.244Z,17.00
2023-05-24T13:06:49.595Z,17.00
2023-05-24T13:09:49.746Z,17.00
2023-05-24T13:12:31.004Z,17.10
2023-05-24T13:15:09.166Z,17.10
2023-05-24T13:17:46.411Z,17.30
2023-05-24T13:20:25.197Z,17.30
2023-05-24T13:23:01.872Z,17.40
2023-05-24T13:25:38.520Z,17.40
2023-05-24T13:28:17.135Z,17.30
2023-05-24T13:30:53.313Z,17.30
2023-05-24T13:33:29.508Z,17.30
2023-05-24T13:36:05.716Z,17.20
2023-05-24T13:38:43.263Z,17.20
2023-05-24T13:41:21.145Z,17.20
2023-05-24T13:43:59.737Z,17.20
2023-05-24T13:46:34.203Z,17.20
2023-05-24T13:49:10.256Z,17.30
2023-05-24T13:51:46.059Z,17.40
2023-05-24T13:54:22.318Z,17.40
2023-05-24T13:57:09.821Z,17.40
2023-05-24T13:59:51.909Z,17.40
2023-05-24T14:02:31.980Z,17.40
2023-05-24T14:05:24.913Z,17.50
2023-05-24T14:08:06.989Z,17.50
2023-05-24T14:10:46.211Z,17.50
2023-05-24T14:13:58.919Z,17.60
2023-05-24T14:16:20.105Z,17.50
2023-05-24T14:18:57.870Z,17.60
2023-05-24T14:21:35.017Z,17.60
2023-05-24T14:24:13.119Z,17.60
2023-05-24T14:26:52.092Z,17.70
2023-05-24T14:29:34.920Z,17.80
2023-05-24T14:32:21.657Z,17.70
2023-05-24T14:34:59.707Z,17.70
2023-05-24T14:37:37.313Z,17.80
2023-05-24T14:40:16.992Z,17.80
2023-05-24T14:42:55.899Z,17.80
2023-05-24T14:45:40.971Z,17.90
2023-05-24T14:48:24.130Z,17.80
2023-05-24T14:51:09.045Z,17.80
2023-05-24T14:53:47.262Z,17.80
2023-05-24T14:56:23.365Z,17.80
2023-05-24T14:58:59.797Z,17.80
2023-05-24T15:01:37.297Z,17.90
2023-05-24T15:04:14.671Z,17.90
2023-05-24T15:06:54.939Z,17.80
2023-05-24T15:09:33.055Z,17.90
2023-05-24T15:12:12.014Z,17.90
2023-05-24T15:14:52.382Z,17.90
2023-05-24T15:17:28.573Z,17.80
2023-05-24T15:20:05.282Z,17.70
2023-05-24T15:22:46.617Z,17.70
2023-05-24T15:25:22.661Z,17.70
2023-05-24T15:27:58.397Z,17.70
2023-05-24T15:30:35.932Z,17.70
2023-05-24T15:33:15.118Z,17.70
2023-05-24T15:35:55.034Z,17.70
2023-05-24T15:38:34.578Z,17.70
2023-05-24T15:41:13.446Z,17.70
2023-05-24T15:43:49.991Z,17.70
2023-05-24T15:46:35.322Z,17.60
2023-05-24T15:49:12.721Z,17.60
2023-05-24T15:52:03.578Z,17.50
2023-05-24T15:54:47.814Z,17.50
2023-05-24T15:57:27.075Z,17.50
2023-05-24T16:00:06.517Z,17.50
2023-05-24T16:02:48.861Z,17.40
2023-05-24T16:05:28.845Z,17.50
2023-05-24T16:08:06.492Z,17.40
2023-05-24T16:10:41.708Z,17.40
2023-05-24T16:13:25.018Z,17.40
2023-05-24T16:16:04.157Z,17.40
2023-05-24T16:18:45.157Z,17.40
2023-05-24T16:21:25.015Z,17.30
2023-05-24T16:24:06.126Z,17.20
2023-05-24T16:26:49.262Z,17.30
2023-05-24T16:29:37.259Z,17.20
2023-05-24T16:32:19.625Z,17.10
2023-05-24T16:34:59.433Z,17.10
2023-05-24T16:37:39.921Z,17.00
2023-05-24T16:40:21.122Z,17.00
2023-05-24T16:42:59.828Z,17.00
2023-05-24T16:45:48.957Z,17.00
2023-05-24T16:48:30.558Z,17.00
2023-05-24T16:51:13.360Z,16.90
2023-05-24T16:53:52.794Z,16.90
2023-05-24T16:56:30.589Z,16.80
2023-05-24T16:59:18.572Z,16.80
2023-05-24T17:02:01.547Z,16.80
2023-05-24T17:04:38.073Z,16.70
2023-05-24T17:07:15.212Z,16.70
2023-05-24T17:09:54.192Z,16.60
2023-05-24T17:12:33.884Z,16.60
2023-05-24T17:15:22.483Z,16.50
2023-05-24T17:18:08.295Z,16.40
2023-05-24T17:20:45.199Z,16.40
2023-05-24T17:23:25.824Z,16.40
2023-05-24T17:26:07.174Z,16.40
2023-05-24T17:28:48.330Z,16.30
2023-05-24T17:31:27.521Z,16.30
2023-05-24T17:34:09.565Z,16.30
2023-05-24T17:36:50.702Z,16.20
2023-05-24T17:39:29.925Z,16.10
2023-05-24T17:42:10.903Z,16.00
2023-05-24T17:44:48.320Z,16.00
2023-05-24T17:47:24.273Z,16.00
2023-05-24T17:50:12.851Z,15.90
2023-05-24T17:52:50.488Z,15.90
2023-05-24T17:55:27.775Z,15.80
2023-05-24T17:58:06.290Z,15.80
2023-05-24T18:00:44.611Z,15.70
2023-05-24T18:03:25.324Z,15.70
2023-05-24T18:06:04.971Z,15.60
2023-05-24T18:08:45.543Z,15.60
2023-05-24T18:11:29.120Z,15.60
2023-05-24T18:14:09.524Z,15.60
2023-05-24T18:16:47.609Z,15.50
2023-05-24T18:19:28.252Z,15.50
2023-05-24T18:22:20.281Z,15.40
2023-05-24T18:28:12.340Z,15.40
2023-05-24T18:30:50.907Z,15.30
2023-05-24T18:39:23.528Z,15.10
2023-05-24T18:45:18.838Z,15.00
2023-05-24T18:51:12.058Z,14.80
2023-05-24T18:53:51.117Z,14.70
2023-05-24T18:56:32.241Z,14.70
2023-05-24T18:59:10.471Z,14.70
2023-05-24T19:01:48.180Z,14.70
2023-05-24T19:04:30.487Z,14.60
2023-05-24T19:07:14.956Z,14.60
2023-05-24T19:09:53.777Z,14.50
2023-05-24T19:15:11.818Z,14.50
2023-05-24T19:17:50.913Z,14.50
2023-05-24T19:20:30.202Z,14.50
2023-05-24T19:26:11.592Z,14.40
2023-05-24T19:28:51.112Z,14.50
2023-05-24T19:31:36.325Z,14.60
2023-05-24T19:34:13.104Z,14.50
2023-05-24T19:36:57.269Z,14.50
2023-05-24T19:39:38.371Z,14.40
2023-05-24T19:42:18.799Z,14.20
2023-05-24T19:44:58.814Z,14.10
2023-05-24T19:47:40.432Z,14.00
2023-05-24T19:50:20.035Z,13.90
2023-05-24T19:53:00.039Z,13.80
2023-05-24T19:55:37.705Z,13.70
2023-05-24T19:58:22.489Z,13.60
2023-05-24T20:01:02.881Z,13.50
2023-05-24T20:03:41.019Z,13.50
2023-05-24T20:06:18.776Z,13.40
2023-05-24T20:09:02.816Z,13.30
2023-05-24T20:11:47.284Z,13.20
2023-05-24T20:14:29.341Z,13.10
2023-05-24T20:17:06.433Z,13.00
2023-05-24T20:19:45.170Z,13.00
2023-05-24T20:22:23.247Z,12.90
2023-05-24T20:25:00.456Z,12.90
2023-05-24T20:27:42.634Z,12.80
2023-05-24T20:30:27.547Z,12.80
2023-05-24T20:35:57.114Z,12.70
2023-05-24T20:38:36.911Z,12.70
2023-05-24T20:41:14.660Z,12.50
2023-05-24T20:46:54.672Z,12.50
2023-05-24T20:49:32.102Z,12.40
2023-05-24T20:52:11.768Z,12.40
2023-05-24T20:54:47.834Z,12.30
2023-05-24T20:57:27.440Z,12.30
2023-05-24T21:00:06.647Z,12.20
2023-05-24T21:02:49.053Z,12.10
2023-05-24T21:05:37.793Z,12.10
2023-05-24T21:08:17.285Z,12.00
2023-05-24T21:11:04.507Z,12.00
2023-05-24T21:13:45.705Z,11.90
2023-05-24T21:16:28.560Z,11.90
2023-05-24T21:19:12.229Z,11.80
2023-05-24T21:21:52.047Z,11.80
2023-05-24T21:24:40.595Z,11.70
2023-05-24T21:27:19.790Z,11.70
2023-05-24T21:30:06.772Z,11.70
2023-05-24T21:32:47.537Z,11.60
2023-05-24T21:38:35.625Z,11.50
2023-05-24T21:41:16.179Z,11.50
2023-05-24T21:44:04.833Z,11.50
2023-05-24T21:55:45.895Z,11.30
2023-05-24T22:04:48.040Z,11.10
2023-05-24T22:07:24.989Z,11.10
2023-05-24T22:10:05.822Z,11.00
2023-05-24T22:28:12.120Z,11.00
2023-05-24T22:30:57.315Z,11.00
2023-05-24T22:33:36.353Z,10.90
2023-05-24T22:36:15.207Z,10.90
2023-05-24T22:38:51.859Z,10.90
2023-05-24T22:41:39.498Z,10.90
2023-05-24T22:44:18.763Z,10.90
2023-05-24T22:46:57.070Z,10.80
2023-05-24T22:49:34.633Z,10.80
2023-05-24T22:52:11.524Z,10.80
2023-05-24T22:54:48.327Z,10.80
2023-05-24T22:57:24.112Z,10.70
2023-05-24T23:00:05.576Z,10.70
2023-05-24T23:02:51.120Z,10.70
2023-05-24T23:05:30.848Z,10.60
2023-05-24T23:08:12.209Z,10.70
2023-05-24T23:10:50.582Z,10.60
2023-05-24T23:13:26.077Z,10.70
2023-05-24T23:16:08.394Z,10.60
2023-05-24T23:18:46.311Z,10.60
2023-05-24T23:21:23.256Z,10.50
2023-05-24T23:23:59.442Z,10.50
2023-05-24T23:26:36.198Z,10.50
2023-05-24T23:29:13.854Z,10.50
2023-05-24T23:31:54.946Z,10.40
2023-05-24T23:34:34.126Z,10.40
2023-05-24T23:37:13.318Z,10.40
2023-05-24T23:39:51.676Z,10.30
2023-05-24T23:42:27.336Z,10.20
2023-05-24T23:45:02.712Z,10.20
2023-05-24T23:47:46.032Z,10.20
2023-05-24T23:50:22.934Z,10.20
2023-05-24T23:52:58.549Z,10.10
2023-05-24T23:55:37.927Z,10.10
2023-05-24T23:58:16.914Z,10.00
